createdAt,value
2022-11-18T00:01:12.978Z,8.70
2022-11-18T00:03:40.867Z,8.70
2022-11-18T00:06:10.461Z,8.70
2022-11-18T00:08:37.084Z,8.60
2022-11-18T00:11:08.621Z,8.60
2022-11-18T00:13:55.316Z,8.60
2022-11-18T00:16:22.243Z,8.50
2022-11-18T00:18:48.841Z,8.60
2022-11-18T00:21:15.561Z,8.50
2022-11-18T00:23:42.129Z,8.50
2022-11-18T00:26:12.335Z,8.50
2022-11-18T00:28:39.713Z,8.50
2022-11-18T00:31:09.223Z,8.50
2022-11-18T00:33:36.978Z,8.50
2022-11-18T00:36:10.036Z,10.60
2022-11-18T00:38:36.728Z,8.60
2022-11-18T00:41:05.829Z,7.50
2022-11-18T00:43:32.749Z,8.60
2022-11-18T00:45:59.486Z,8.60
2022-11-18T00:48:26.329Z,8.60
2022-11-18T00:50:55.170Z,11.60
2022-11-18T00:53:23.256Z,8.60
2022-11-18T00:55:50.599Z,8.60
2022-11-18T00:58:17.916Z,8.60
2022-11-18T01:00:46.572Z,8.60
2022-11-18T01:03:13.258Z,8.60
2022-11-18T01:05:40.617Z,8.60
2022-11-18T01:08:09.622Z,8.60
2022-11-18T01:10:36.908Z,8.70
2022-11-18T01:13:19.682Z,8.70
2022-11-18T01:15:58.109Z,8.70
2022-11-18T01:18:27.576Z,8.80
2022-11-18T01:20:54.377Z,8.70
2022-11-18T01:23:21.107Z,8.80
2022-11-18T01:25:49.561Z,8.80
2022-11-18T01:28:23.198Z,8.80
2022-11-18T01:30:50.354Z,8.80
2022-11-18T01:33:16.987Z,8.80
2022-11-18T01:35:44.334Z,8.80
2022-11-18T01:38:12.401Z,8.90
2022-11-18T01:40:39.729Z,8.90
2022-11-18T01:43:18.941Z,8.90
2022-11-18T01:45:48.205Z,8.90
2022-11-18T01:48:28.794Z,8.90
2022-11-18T01:51:02.597Z,8.90
2022-11-18T01:53:35.598Z,8.90
2022-11-18T01:56:07.068Z,8.90
2022-11-18T01:58:41.534Z,8.90
2022-11-18T02:01:08.528Z,8.90
2022-11-18T02:03:35.853Z,8.90
2022-11-18T02:06:04.797Z,8.90
2022-11-18T02:08:32.607Z,8.90
2022-11-18T02:16:15.692Z,9.00
2022-11-18T02:18:45.115Z,9.00
2022-11-18T02:22:00.245Z,9.00
2022-11-18T02:24:34.206Z,9.00
2022-11-18T02:27:22.528Z,9.00
2022-11-18T02:29:58.712Z,9.00
2022-11-18T02:32:32.061Z,9.00
2022-11-18T02:35:24.553Z,9.00
2022-11-18T02:37:56.552Z,8.90
2022-11-18T02:40:39.924Z,9.00
2022-11-18T02:43:32.488Z,9.00
2022-11-18T02:46:05.408Z,9.00
2022-11-18T02:48:35.154Z,9.00
2022-11-18T02:51:05.695Z,9.10
2022-11-18T02:53:34.797Z,9.00
2022-11-18T02:56:03.747Z,9.10
2022-11-18T02:58:30.474Z,9.00
2022-11-18T03:01:00.189Z,9.00
2022-11-18T03:03:29.815Z,9.00
2022-11-18T03:06:31.845Z,9.00
2022-11-18T03:09:15.801Z,9.00
2022-11-18T03:11:55.607Z,9.00
2022-11-18T03:14:37.224Z,9.00
2022-11-18T03:17:17.570Z,8.90
2022-11-18T03:19:53.258Z,8.90
2022-11-18T03:22:33.508Z,8.80
2022-11-18T03:25:09.016Z,8.80
2022-11-18T03:28:01.797Z,8.80
2022-11-18T03:30:31.000Z,8.80
2022-11-18T03:33:11.059Z,8.80
2022-11-18T03:35:43.311Z,8.70
2022-11-18T03:38:15.758Z,8.70
2022-11-18T03:40:50.240Z,8.70
2022-11-18T03:43:21.663Z,8.70
2022-11-18T03:45:52.431Z,8.70
2022-11-18T03:48:31.875Z,8.70
2022-11-18T03:51:02.611Z,8.70
2022-11-18T03:53:34.789Z,8.70
2022-11-18T03:56:17.094Z,8.70
2022-11-18T03:59:02.017Z,8.70
2022-11-18T04:01:35.144Z,8.70
2022-11-18T04:04:01.972Z,8.70
2022-11-18T04:06:38.697Z,8.60
2022-11-18T04:09:13.865Z,8.70
2022-11-18T04:12:04.961Z,8.70
2022-11-18T04:14:40.525Z,8.60
2022-11-18T04:17:16.662Z,8.70
2022-11-18T04:19:43.356Z,8.70
2022-11-18T04:22:11.523Z,8.70
2022-11-18T04:24:38.654Z,8.70
2022-11-18T04:27:06.593Z,8.70
2022-11-18T04:29:34.173Z,8.70
2022-11-18T04:32:02.392Z,8.70
2022-11-18T04:41:57.465Z,8.80
2022-11-18T04:44:27.932Z,8.80
2022-11-18T04:46:55.776Z,8.80
2022-11-18T04:49:23.044Z,8.80
2022-11-18T04:54:18.057Z,8.70
2022-11-18T04:59:21.519Z,9.70
2022-11-18T05:01:49.338Z,8.60
2022-11-18T05:04:18.573Z,8.80
2022-11-18T05:06:45.351Z,8.80
2022-11-18T05:09:12.239Z,8.70
2022-11-18T05:11:57.374Z,6.70
2022-11-18T05:14:27.861Z,8.70
2022-11-18T05:16:56.318Z,8.70
2022-11-18T05:19:23.375Z,8.70
2022-11-18T05:21:50.188Z,8.60
2022-11-18T05:24:17.080Z,8.60
2022-11-18T05:26:43.644Z,8.60
2022-11-18T05:29:10.671Z,8.70
2022-11-18T05:31:37.539Z,8.60
2022-11-18T05:34:04.297Z,8.60
2022-11-18T05:36:30.884Z,8.40
2022-11-18T05:39:00.678Z,8.40
2022-11-18T05:41:45.928Z,8.30
2022-11-18T05:44:12.667Z,8.40
2022-11-18T05:46:39.509Z,8.30
2022-11-18T05:49:06.188Z,8.30
2022-11-18T05:54:02.898Z,8.10
2022-11-18T05:56:35.540Z,8.10
2022-11-18T06:01:35.860Z,8.10
2022-11-18T06:04:08.425Z,8.00
2022-11-18T06:06:35.368Z,8.00
2022-11-18T06:09:08.278Z,8.00
2022-11-18T06:11:43.257Z,8.00
2022-11-18T06:14:15.189Z,8.00
2022-11-18T06:16:47.505Z,8.00
2022-11-18T06:24:09.908Z,7.80
2022-11-18T06:26:37.680Z,7.80
2022-11-18T06:29:07.308Z,7.80
2022-11-18T06:31:34.040Z,7.80
2022-11-18T06:34:01.022Z,7.90
2022-11-18T06:36:27.583Z,7.90
2022-11-18T06:41:21.182Z,8.00
2022-11-18T06:43:47.855Z,8.10
2022-11-18T06:46:36.119Z,8.00
2022-11-18T06:56:24.938Z,8.00
2022-11-18T06:58:55.935Z,8.00
2022-11-18T07:01:25.991Z,8.00
2022-11-18T07:03:53.093Z,8.00
2022-11-18T07:06:22.290Z,8.00
2022-11-18T07:08:49.999Z,8.00
2022-11-18T07:11:19.152Z,8.00
2022-11-18T07:13:46.628Z,8.00
2022-11-18T07:16:15.785Z,8.00
2022-11-18T07:18:43.740Z,8.00
2022-11-18T07:21:18.807Z,7.90
2022-11-18T07:23:45.845Z,7.90
2022-11-18T07:26:13.148Z,7.90
2022-11-18T07:28:40.219Z,7.90
2022-11-18T07:33:34.560Z,8.00
2022-11-18T07:36:12.058Z,7.90
2022-11-18T07:38:39.328Z,8.00
2022-11-18T07:41:09.869Z,8.00
2022-11-18T07:43:37.769Z,8.00
2022-11-18T07:46:16.110Z,8.00
2022-11-18T07:48:44.685Z,8.10
2022-11-18T07:51:12.163Z,8.10
2022-11-18T07:53:38.849Z,8.10
2022-11-18T07:56:07.993Z,8.10
2022-11-18T07:58:35.392Z,8.10
2022-11-18T08:01:20.532Z,8.20
2022-11-18T08:03:47.586Z,8.20
2022-11-18T08:06:16.416Z,8.20
2022-11-18T08:08:43.664Z,8.20
2022-11-18T08:11:18.862Z,8.30
2022-11-18T08:13:48.413Z,8.30
2022-11-18T08:16:20.149Z,8.30
2022-11-18T08:18:47.583Z,8.30
2022-11-18T08:21:15.431Z,8.30
2022-11-18T08:23:43.368Z,8.40
2022-11-18T08:26:13.789Z,8.40
2022-11-18T08:28:42.497Z,8.50
2022-11-18T08:31:17.461Z,8.50
2022-11-18T08:33:44.274Z,8.60
2022-11-18T08:36:17.494Z,8.60
2022-11-18T08:38:44.386Z,8.70
2022-11-18T08:41:13.761Z,8.70
2022-11-18T08:46:07.465Z,8.80
2022-11-18T08:48:34.058Z,8.80
2022-11-18T08:51:01.247Z,8.90
2022-11-18T08:55:58.910Z,8.90
2022-11-18T08:58:26.370Z,9.00
2022-11-18T09:00:53.410Z,9.00
2022-11-18T09:03:20.504Z,9.00
2022-11-18T09:05:47.519Z,9.10
2022-11-18T09:10:42.162Z,9.20
2022-11-18T09:13:33.714Z,9.20
2022-11-18T09:15:59.189Z,9.20
2022-11-18T09:18:26.392Z,9.20
2022-11-18T09:20:55.949Z,9.30
2022-11-18T09:25:56.680Z,9.40
2022-11-18T09:35:47.443Z,9.60
2022-11-18T09:40:55.624Z,9.70
2022-11-18T09:43:56.332Z,9.70
2022-11-18T09:46:30.096Z,9.70
2022-11-18T09:49:12.719Z,9.70
2022-11-18T09:51:42.257Z,9.80
2022-11-18T09:54:12.291Z,9.80
2022-11-18T09:56:40.928Z,9.80
2022-11-18T10:01:37.091Z,9.90
2022-11-18T10:04:03.989Z,9.90
2022-11-18T10:06:33.920Z,10.00
2022-11-18T10:09:26.918Z,10.00
2022-11-18T10:12:02.615Z,10.00
2022-11-18T10:14:53.366Z,10.00
2022-11-18T10:17:41.315Z,9.90
2022-11-18T10:20:35.807Z,10.00
2022-11-18T10:23:13.973Z,10.00
2022-11-18T10:25:40.548Z,10.00
2022-11-18T10:28:33.169Z,10.10
2022-11-18T10:31:08.391Z,10.10
2022-11-18T10:36:25.815Z,10.10
2022-11-18T10:39:12.888Z,10.10
2022-11-18T10:42:02.130Z,10.20
2022-11-18T10:44:31.809Z,10.20
2022-11-18T10:47:22.066Z,10.20
2022-11-18T10:54:43.257Z,10.30
2022-11-18T10:57:25.081Z,10.30
2022-11-18T10:59:55.020Z,10.20
2022-11-18T11:02:31.088Z,10.20
2022-11-18T11:04:59.491Z,10.20
2022-11-18T11:07:44.158Z,10.10
2022-11-18T11:10:10.719Z,10.00
2022-11-18T11:12:48.659Z,10.10
2022-11-18T11:15:36.162Z,10.10
2022-11-18T11:18:42.321Z,10.00
2022-11-18T11:21:13.231Z,9.90
2022-11-18T11:23:40.742Z,9.90
2022-11-18T11:29:50.499Z,9.80
2022-11-18T11:32:31.171Z,9.80
2022-11-18T11:35:21.779Z,9.80
2022-11-18T11:37:58.511Z,9.70
2022-11-18T11:40:39.710Z,9.70
2022-11-18T11:43:31.272Z,9.70
2022-11-18T11:46:15.899Z,9.60
2022-11-18T11:51:16.770Z,9.50
2022-11-18T11:54:06.373Z,9.50
2022-11-18T11:56:35.786Z,9.40
2022-11-18T11:59:30.073Z,9.30
2022-11-18T12:02:38.616Z,9.30
2022-11-18T12:05:34.450Z,9.30
2022-11-18T12:08:03.591Z,9.30
2022-11-18T12:10:54.711Z,9.30
2022-11-18T12:13:40.639Z,9.30
2022-11-18T12:16:21.994Z,9.30
2022-11-18T12:19:08.449Z,9.30
2022-11-18T12:21:46.971Z,9.30
2022-11-18T12:24:42.456Z,9.30
2022-11-18T12:27:13.926Z,9.20
2022-11-18T12:30:01.610Z,9.20
2022-11-18T12:32:45.213Z,9.20
2022-11-18T12:37:40.376Z,9.10
2022-11-18T12:40:09.471Z,9.10
2022-11-18T12:43:03.219Z,9.10
2022-11-18T12:45:41.943Z,9.10
2022-11-18T12:48:27.306Z,9.10
2022-11-18T12:51:00.714Z,9.00
2022-11-18T12:53:44.890Z,9.00
2022-11-18T12:56:17.523Z,8.90
2022-11-18T12:58:57.628Z,8.90
2022-11-18T13:01:30.557Z,8.80
2022-11-18T13:04:19.859Z,8.80
2022-11-18T13:06:47.454Z,8.70
2022-11-18T13:09:20.487Z,8.60
2022-11-18T13:11:52.861Z,8.60
2022-11-18T13:14:58.054Z,8.50
2022-11-18T13:17:58.742Z,8.40
2022-11-18T13:20:33.040Z,8.30
2022-11-18T13:23:38.246Z,8.20
2022-11-18T13:26:31.530Z,8.20
2022-11-18T13:29:20.594Z,8.10
2022-11-18T13:32:20.240Z,8.10
2022-11-18T13:34:50.991Z,8.00
2022-11-18T13:37:24.729Z,8.00
2022-11-18T13:44:52.637Z,7.80
2022-11-18T13:47:26.616Z,7.80
2022-11-18T13:50:11.341Z,7.80
2022-11-18T13:56:33.290Z,7.70
2022-11-18T14:01:45.610Z,7.50
2022-11-18T14:04:21.958Z,7.20
2022-11-18T14:09:30.042Z,7.40
2022-11-18T14:12:21.607Z,7.40
2022-11-18T14:17:28.136Z,7.30
2022-11-18T14:19:57.073Z,7.30
2022-11-18T14:22:31.215Z,7.20
2022-11-18T14:25:14.833Z,7.20
2022-11-18T14:27:50.890Z,7.10
2022-11-18T14:30:40.032Z,7.10
2022-11-18T14:33:22.107Z,6.80
2022-11-18T14:36:08.940Z,7.10
2022-11-18T14:46:44.614Z,5.40
2022-11-18T14:49:15.300Z,6.70
2022-11-18T14:54:17.212Z,6.50
2022-11-18T14:56:48.859Z,6.40
2022-11-18T14:59:17.605Z,6.30
2022-11-18T15:01:45.266Z,6.10
2022-11-18T15:06:40.062Z,6.20
2022-11-18T15:09:10.441Z,6.20
2022-11-18T15:16:33.039Z,6.20
2022-11-18T15:19:02.691Z,6.10
2022-11-18T15:26:30.415Z,5.90
2022-11-18T15:28:57.988Z,5.70
2022-11-18T15:31:25.354Z,5.70
2022-11-18T15:33:52.852Z,8.90
2022-11-18T15:36:24.015Z,5.60
2022-11-18T15:41:23.758Z,5.60
2022-11-18T15:43:51.285Z,5.60
2022-11-18T15:46:20.034Z,5.60
2022-11-18T15:56:24.588Z,5.50
2022-11-18T15:59:05.667Z,5.40
2022-11-18T16:01:38.103Z,5.50
2022-11-18T16:04:06.269Z,5.40
2022-11-18T16:11:47.452Z,5.50
2022-11-18T16:14:17.900Z,5.50
2022-11-18T16:16:48.234Z,5.20
2022-11-18T16:19:17.983Z,5.50
2022-11-18T16:21:47.356Z,5.40
2022-11-18T16:24:21.176Z,5.40
2022-11-18T16:31:50.502Z,5.40
2022-11-18T16:34:19.924Z,5.30
2022-11-18T16:36:49.339Z,5.40
2022-11-18T16:39:18.463Z,5.30
2022-11-18T16:41:46.414Z,5.30
2022-11-18T16:44:17.073Z,5.30
2022-11-18T16:46:48.712Z,5.20
2022-11-18T16:49:17.213Z,5.20
2022-11-18T16:51:46.109Z,5.20
2022-11-18T16:54:21.192Z,7.20
2022-11-18T16:56:48.372Z,5.00
2022-11-18T16:59:18.629Z,5.00
2022-11-18T17:04:13.949Z,5.00
2022-11-18T17:06:41.502Z,4.90
2022-11-18T17:09:12.469Z,4.90
2022-11-18T17:16:33.129Z,4.70
2022-11-18T17:19:02.862Z,4.70
2022-11-18T17:26:27.610Z,4.70
2022-11-18T17:28:57.598Z,4.70
2022-11-18T17:31:25.273Z,4.60
2022-11-18T17:33:54.423Z,4.50
2022-11-18T17:36:23.696Z,4.50
2022-11-18T17:38:52.422Z,4.90
2022-11-18T17:41:39.795Z,4.50
2022-11-18T17:44:07.941Z,4.50
2022-11-18T17:46:38.188Z,4.50
2022-11-18T17:49:07.719Z,4.40
2022-11-18T17:54:01.472Z,4.20
2022-11-18T18:06:18.953Z,4.20
2022-11-18T18:11:15.327Z,4.20
2022-11-18T18:16:30.224Z,4.10
2022-11-18T18:18:58.412Z,3.90
2022-11-18T18:31:15.510Z,3.70
2022-11-18T18:36:12.470Z,3.60
2022-11-18T18:38:40.107Z,3.60
2022-11-18T18:41:27.005Z,3.60
2022-11-18T18:46:29.845Z,3.50
2022-11-18T18:49:12.025Z,3.50
2022-11-18T18:51:41.045Z,3.50
2022-11-18T18:54:10.732Z,3.40
2022-11-18T18:56:38.533Z,3.50
2022-11-18T19:04:02.730Z,3.30
2022-11-18T19:06:53.254Z,3.20
2022-11-18T19:22:23.052Z,3.00
2022-11-18T19:27:19.140Z,3.00
2022-11-18T19:29:45.866Z,2.80
2022-11-18T19:34:39.595Z,2.90
2022-11-18T19:39:33.434Z,2.80
2022-11-18T19:49:21.880Z,2.80
2022-11-18T19:54:15.603Z,2.80
2022-11-18T19:59:11.336Z,2.90
2022-11-18T20:01:38.682Z,2.80
2022-11-18T20:06:34.947Z,3.00
2022-11-18T20:09:02.521Z,3.00
2022-11-18T20:13:56.328Z,3.20
2022-11-18T20:16:24.978Z,3.00
2022-11-18T20:19:00.141Z,3.00
2022-11-18T20:21:28.248Z,3.10
2022-11-18T20:23:57.374Z,3.20
2022-11-18T20:26:26.360Z,3.10
2022-11-18T20:28:57.426Z,2.80
2022-11-18T20:31:25.432Z,3.10
2022-11-18T20:33:54.289Z,3.00
2022-11-18T20:38:52.591Z,3.10
2022-11-18T20:43:48.017Z,3.00
2022-11-18T20:46:20.385Z,3.10
2022-11-18T20:51:17.537Z,3.70
2022-11-18T20:56:17.267Z,2.90
2022-11-18T20:58:44.570Z,3.00
2022-11-18T21:01:17.128Z,3.00
2022-11-18T21:03:48.612Z,3.00
2022-11-18T21:11:12.519Z,3.00
2022-11-18T21:13:58.699Z,-0.40
2022-11-18T21:16:26.315Z,2.90
2022-11-18T21:18:53.502Z,2.90
2022-11-18T21:21:38.602Z,2.90
2022-11-18T21:24:05.669Z,2.90
2022-11-18T21:26:34.361Z,2.70
2022-11-18T21:29:03.545Z,3.00
2022-11-18T21:31:31.109Z,3.00
2022-11-18T21:33:57.740Z,2.90
2022-11-18T21:36:26.086Z,3.10
2022-11-18T21:38:53.086Z,2.90
2022-11-18T21:41:19.913Z,2.90
2022-11-18T21:46:38.761Z,3.00
2022-11-18T21:49:06.077Z,3.00
2022-11-18T21:51:33.923Z,3.00
2022-11-18T21:54:01.144Z,2.80
2022-11-18T21:56:30.698Z,2.70
2022-11-18T21:58:59.658Z,2.70
2022-11-18T22:01:30.741Z,2.60
2022-11-18T22:03:59.503Z,2.80
2022-11-18T22:06:29.639Z,2.60
2022-11-18T22:11:24.048Z,2.60
2022-11-18T22:13:51.980Z,2.60
2022-11-18T22:16:22.155Z,2.60
2022-11-18T22:18:55.027Z,2.60
2022-11-18T22:23:56.140Z,2.60
2022-11-18T22:28:53.767Z,2.50
2022-11-18T22:31:21.776Z,2.60
2022-11-18T22:33:52.258Z,2.60
2022-11-18T22:36:21.453Z,2.60
2022-11-18T22:38:49.033Z,2.70
2022-11-18T22:41:43.122Z,2.60
2022-11-18T22:44:11.704Z,2.60
2022-11-18T22:46:39.943Z,2.60
2022-11-18T22:49:07.852Z,2.50
2022-11-18T22:51:36.796Z,2.60
2022-11-18T23:01:45.781Z,2.60
2022-11-18T23:19:15.467Z,2.60
2022-11-18T23:21:43.284Z,2.60
2022-11-18T23:24:14.798Z,2.60
2022-11-18T23:26:41.883Z,2.40
2022-11-18T23:29:09.913Z,2.70
2022-11-18T23:38:57.544Z,2.50
2022-11-18T23:41:24.122Z,2.40
2022-11-18T23:48:46.759Z,2.30
2022-11-18T23:51:18.536Z,2.20
2022-11-18T23:53:47.795Z,2.20
2022-11-18T23:56:16.431Z,1.80
2022-11-18T23:58:45.649Z,2.10
